createdAt,value
2017-06-28T00:01:14.546Z,19.60
2017-06-28T00:03:42.092Z,19.60
2017-06-28T00:06:10.026Z,19.70
2017-06-28T00:08:37.582Z,19.70
2017-06-28T00:11:05.139Z,19.60
2017-06-28T00:13:32.687Z,19.70
2017-06-28T00:16:00.273Z,19.60
2017-06-28T00:18:27.849Z,19.60
2017-06-28T00:20:55.784Z,19.60
2017-06-28T00:23:23.319Z,19.60
2017-06-28T00:25:50.882Z,19.60
2017-06-28T00:28:18.418Z,19.60
2017-06-28T00:30:45.977Z,19.60
2017-06-28T00:33:13.515Z,19.60
2017-06-28T00:35:41.493Z,19.60
2017-06-28T00:38:09.036Z,19.60
2017-06-28T00:40:37.034Z,19.60
2017-06-28T00:43:04.594Z,19.70
2017-06-28T00:45:32.121Z,19.60
2017-06-28T00:48:00.106Z,19.60
2017-06-28T00:50:27.645Z,19.60
2017-06-28T00:52:55.232Z,19.60
2017-06-28T00:55:22.773Z,19.50
2017-06-28T00:57:50.712Z,19.50
2017-06-28T01:00:19.270Z,19.60
2017-06-28T01:02:46.802Z,19.50
2017-06-28T01:05:14.362Z,19.50
2017-06-28T01:07:41.914Z,19.50
2017-06-28T01:10:09.476Z,19.50
2017-06-28T01:12:37.014Z,19.50
2017-06-28T01:15:04.941Z,19.50
2017-06-28T01:17:32.487Z,19.60
2017-06-28T01:20:00.015Z,19.50
2017-06-28T01:22:27.563Z,19.50
2017-06-28T01:24:56.422Z,19.50
2017-06-28T01:27:24.977Z,19.50
2017-06-28T01:29:52.524Z,19.40
2017-06-28T01:32:20.094Z,19.50
2017-06-28T01:34:47.643Z,19.50
2017-06-28T01:37:15.177Z,19.50
2017-06-28T01:39:42.740Z,19.40
2017-06-28T01:42:10.288Z,19.50
2017-06-28T01:44:37.838Z,19.40
2017-06-28T01:47:05.385Z,19.50
2017-06-28T01:49:33.313Z,19.50
2017-06-28T01:52:00.874Z,19.50
2017-06-28T01:54:28.425Z,19.50
2017-06-28T01:56:55.993Z,19.50
2017-06-28T01:59:23.545Z,19.50
2017-06-28T02:01:51.094Z,19.50
2017-06-28T02:04:18.631Z,19.50
2017-06-28T02:06:46.180Z,19.50
2017-06-28T02:09:13.742Z,19.50
2017-06-28T02:11:41.300Z,19.50
2017-06-28T02:14:08.862Z,19.50
2017-06-28T02:16:36.405Z,19.50
2017-06-28T02:19:03.966Z,19.50
2017-06-28T02:21:31.909Z,19.50
2017-06-28T02:23:59.465Z,19.50
2017-06-28T02:26:27.021Z,19.50
2017-06-28T02:28:54.566Z,19.50
2017-06-28T02:31:22.113Z,19.50
2017-06-28T02:33:49.654Z,19.50
2017-06-28T02:36:17.217Z,19.50
2017-06-28T02:38:44.737Z,19.50
2017-06-28T02:41:12.302Z,19.50
2017-06-28T02:43:39.859Z,19.50
2017-06-28T02:46:07.789Z,19.60
2017-06-28T02:48:35.348Z,19.60
2017-06-28T02:51:02.876Z,19.50
2017-06-28T02:53:30.465Z,19.50
2017-06-28T02:55:58.001Z,19.50
2017-06-28T02:58:25.524Z,19.50
2017-06-28T03:00:53.073Z,19.50
2017-06-28T03:03:20.609Z,19.50
2017-06-28T03:05:48.569Z,19.50
2017-06-28T03:08:16.522Z,19.50
2017-06-28T03:10:44.097Z,19.50
2017-06-28T03:13:11.643Z,19.50
2017-06-28T03:15:39.177Z,19.50
2017-06-28T03:18:06.722Z,19.50
2017-06-28T03:20:34.249Z,19.50
2017-06-28T03:23:01.802Z,19.50
2017-06-28T03:25:29.733Z,19.60
2017-06-28T03:27:57.302Z,19.60
2017-06-28T03:30:25.909Z,19.60
2017-06-28T03:32:55.035Z,19.60
2017-06-28T03:35:22.594Z,19.60
2017-06-28T03:37:50.121Z,19.60
2017-06-28T03:40:17.655Z,19.60
2017-06-28T03:42:45.191Z,19.60
2017-06-28T03:45:12.727Z,19.60
2017-06-28T03:47:40.273Z,19.50
2017-06-28T03:50:07.812Z,19.50
2017-06-28T03:52:35.353Z,19.50
2017-06-28T03:55:02.907Z,19.50
2017-06-28T03:57:30.458Z,19.50
2017-06-28T03:59:57.985Z,19.40
2017-06-28T04:02:25.541Z,19.40
2017-06-28T04:04:53.076Z,19.40
2017-06-28T04:07:20.634Z,19.40
2017-06-28T04:09:48.562Z,19.40
2017-06-28T04:12:16.097Z,19.30
2017-06-28T04:14:43.642Z,19.30
2017-06-28T04:17:11.172Z,19.30
2017-06-28T04:19:39.229Z,19.30
2017-06-28T04:22:06.761Z,19.30
2017-06-28T04:24:34.354Z,19.30
2017-06-28T04:27:01.894Z,19.30
2017-06-28T04:29:29.439Z,19.30
2017-06-28T04:31:56.990Z,19.30
2017-06-28T04:34:24.518Z,19.20
2017-06-28T04:36:52.054Z,19.20
2017-06-28T04:39:19.614Z,19.10
2017-06-28T04:41:47.233Z,19.00
2017-06-28T04:44:14.776Z,18.90
2017-06-28T04:46:42.327Z,18.90
2017-06-28T04:49:09.858Z,18.80
2017-06-28T04:51:37.435Z,18.70
2017-06-28T04:54:04.986Z,18.60
2017-06-28T04:56:32.545Z,18.60
2017-06-28T04:59:00.117Z,18.50
2017-06-28T05:01:27.657Z,18.50
2017-06-28T05:03:55.228Z,18.40
2017-06-28T05:06:22.792Z,18.30
2017-06-28T05:08:50.361Z,18.20
2017-06-28T05:11:17.914Z,18.20
2017-06-28T05:13:45.490Z,18.10
2017-06-28T05:16:13.048Z,18.10
2017-06-28T05:18:40.583Z,18.10
2017-06-28T05:21:08.147Z,18.10
2017-06-28T05:23:35.700Z,18.10
2017-06-28T05:26:03.266Z,18.10
2017-06-28T05:28:30.801Z,18.10
2017-06-28T05:30:58.358Z,18.10
2017-06-28T05:33:25.906Z,18.20
2017-06-28T05:35:53.494Z,18.20
2017-06-28T05:38:21.029Z,18.20
2017-06-28T05:40:48.573Z,18.20
2017-06-28T05:43:16.136Z,18.20
2017-06-28T05:45:43.697Z,18.20
2017-06-28T05:48:11.260Z,18.20
2017-06-28T05:50:38.803Z,18.20
2017-06-28T05:53:06.393Z,18.20
2017-06-28T05:55:33.957Z,18.20
2017-06-28T05:58:01.527Z,18.20
2017-06-28T06:00:29.080Z,18.30
2017-06-28T06:02:56.618Z,18.30
2017-06-28T06:05:24.824Z,18.30
2017-06-28T06:07:52.350Z,18.30
2017-06-28T06:10:20.853Z,18.30
2017-06-28T06:12:48.383Z,18.30
2017-06-28T06:15:15.953Z,18.30
2017-06-28T06:17:43.699Z,18.30
2017-06-28T06:20:11.256Z,18.30
2017-06-28T06:22:38.810Z,18.40
2017-06-28T06:25:06.345Z,18.30
2017-06-28T06:27:33.904Z,18.40
2017-06-28T06:30:01.450Z,18.40
2017-06-28T06:32:29.017Z,18.50
2017-06-28T06:34:56.557Z,18.50
2017-06-28T06:37:24.153Z,18.50
2017-06-28T06:39:51.724Z,18.50
2017-06-28T06:42:19.277Z,18.50
2017-06-28T06:44:46.831Z,18.50
2017-06-28T06:47:14.765Z,18.50
2017-06-28T06:49:42.330Z,18.50
2017-06-28T06:52:09.862Z,18.50
2017-06-28T06:54:37.408Z,18.50
2017-06-28T06:57:04.974Z,18.50
2017-06-28T06:59:32.512Z,18.50
2017-06-28T07:02:00.065Z,18.50
2017-06-28T07:04:27.602Z,18.50
2017-06-28T07:06:55.566Z,18.50
2017-06-28T07:09:24.571Z,18.50
2017-06-28T07:11:52.133Z,18.50
2017-06-28T07:14:19.680Z,18.60
2017-06-28T07:16:47.627Z,18.70
2017-06-28T07:19:15.190Z,18.70
2017-06-28T07:21:42.730Z,18.70
2017-06-28T07:24:10.301Z,18.70
2017-06-28T07:26:37.850Z,18.70
2017-06-28T07:29:05.401Z,18.80
2017-06-28T07:31:32.948Z,18.90
2017-06-28T07:34:00.518Z,18.90
2017-06-28T07:36:28.078Z,19.00
2017-06-28T07:38:57.024Z,19.10
2017-06-28T07:41:24.574Z,19.20
2017-06-28T07:43:52.115Z,19.20
2017-06-28T07:46:19.677Z,19.20
2017-06-28T07:48:47.608Z,19.10
2017-06-28T07:51:15.170Z,19.10
2017-06-28T07:53:42.809Z,19.10
2017-06-28T07:56:10.361Z,19.10
2017-06-28T07:58:37.927Z,19.00
2017-06-28T08:01:05.475Z,19.00
2017-06-28T08:03:33.031Z,18.90
2017-06-28T08:06:00.570Z,18.90
2017-06-28T08:08:28.155Z,18.90
2017-06-28T08:10:55.701Z,18.90
2017-06-28T08:13:23.285Z,18.80
2017-06-28T08:15:50.830Z,18.80
2017-06-28T08:18:18.372Z,18.80
2017-06-28T08:20:45.928Z,18.70
2017-06-28T08:23:13.466Z,18.70
2017-06-28T08:25:41.456Z,18.70
2017-06-28T08:28:08.990Z,18.70
2017-06-28T08:30:36.553Z,18.80
2017-06-28T08:33:04.495Z,18.80
2017-06-28T08:35:32.046Z,18.80
2017-06-28T08:37:59.583Z,18.90
2017-06-28T08:40:27.129Z,18.90
2017-06-28T08:42:54.679Z,18.90
2017-06-28T08:45:22.224Z,19.00
2017-06-28T08:47:49.778Z,19.10
2017-06-28T08:50:17.725Z,19.10
2017-06-28T08:52:45.283Z,19.10
2017-06-28T08:55:12.833Z,19.20
2017-06-28T08:57:40.401Z,19.20
2017-06-28T09:00:08.361Z,19.30
2017-06-28T09:02:35.913Z,19.30
2017-06-28T09:05:03.483Z,19.30
2017-06-28T09:07:31.026Z,19.20
2017-06-28T09:09:58.581Z,19.30
2017-06-28T09:12:26.125Z,19.30
2017-06-28T09:14:53.688Z,19.30
2017-06-28T09:17:21.237Z,19.30
2017-06-28T09:19:48.827Z,19.30
2017-06-28T09:22:16.353Z,19.30
2017-06-28T09:24:43.949Z,19.30
2017-06-28T09:27:11.535Z,19.30
2017-06-28T09:29:39.111Z,19.30
2017-06-28T09:32:06.657Z,19.30
2017-06-28T09:34:34.313Z,19.30
2017-06-28T09:37:02.264Z,19.30
2017-06-28T09:39:29.799Z,19.30
2017-06-28T09:41:57.354Z,19.30
2017-06-28T09:44:24.895Z,19.40
2017-06-28T09:46:52.425Z,19.50
2017-06-28T09:49:19.966Z,19.50
2017-06-28T09:51:47.496Z,19.50
2017-06-28T09:54:15.044Z,19.50
2017-06-28T09:56:42.587Z,19.40
2017-06-28T09:59:10.149Z,19.40
2017-06-28T10:01:37.773Z,19.30
2017-06-28T10:04:05.336Z,19.40
2017-06-28T10:06:32.860Z,19.50
2017-06-28T10:09:00.396Z,19.60
2017-06-28T10:11:28.059Z,19.60
2017-06-28T10:13:56.222Z,19.80
2017-06-28T10:16:24.386Z,19.80
2017-06-28T10:18:51.966Z,19.80
2017-06-28T10:21:19.554Z,19.90
2017-06-28T10:23:47.482Z,20.00
2017-06-28T10:26:15.008Z,20.00
2017-06-28T10:28:42.545Z,20.00
2017-06-28T10:31:10.477Z,20.00
2017-06-28T10:33:38.032Z,20.00
2017-06-28T10:36:05.577Z,20.00
2017-06-28T10:38:33.140Z,20.00
2017-06-28T10:41:00.664Z,20.00
2017-06-28T10:43:28.194Z,20.00
2017-06-28T10:45:55.752Z,20.10
2017-06-28T10:48:23.695Z,20.10
2017-06-28T10:50:51.258Z,20.00
2017-06-28T10:53:18.871Z,20.10
2017-06-28T10:55:46.429Z,20.10
2017-06-28T10:58:13.956Z,20.20
2017-06-28T11:00:41.521Z,20.20
2017-06-28T11:03:09.453Z,20.40
2017-06-28T11:05:37.002Z,20.40
2017-06-28T11:08:04.539Z,20.50
2017-06-28T11:10:32.177Z,20.50
2017-06-28T11:12:59.745Z,20.50
2017-06-28T11:15:27.287Z,20.60
2017-06-28T11:17:56.126Z,20.60
2017-06-28T11:20:24.089Z,20.60
2017-06-28T11:22:51.737Z,20.60
2017-06-28T11:25:19.285Z,20.60
2017-06-28T11:27:46.827Z,20.70
2017-06-28T11:30:14.409Z,20.80
2017-06-28T11:32:41.943Z,20.80
2017-06-28T11:35:09.710Z,20.80
2017-06-28T11:37:37.535Z,20.90
2017-06-28T11:40:05.250Z,20.90
2017-06-28T11:42:33.011Z,21.00
2017-06-28T11:45:00.713Z,21.00
2017-06-28T11:47:28.321Z,21.00
2017-06-28T11:49:55.873Z,21.00
2017-06-28T11:52:23.454Z,21.00
2017-06-28T11:54:51.004Z,21.10
2017-06-28T11:57:18.533Z,21.20
2017-06-28T11:59:46.553Z,21.30
2017-06-28T12:02:14.490Z,21.30
2017-06-28T12:04:42.041Z,21.40
2017-06-28T12:07:09.631Z,21.40
2017-06-28T12:09:37.196Z,21.40
2017-06-28T12:12:04.737Z,21.30
2017-06-28T12:14:32.313Z,21.20
2017-06-28T12:16:59.940Z,21.20
2017-06-28T12:19:27.480Z,21.10
2017-06-28T12:21:56.234Z,20.90
2017-06-28T12:24:23.775Z,20.80
2017-06-28T12:26:51.340Z,20.70
2017-06-28T12:29:18.894Z,20.60
2017-06-28T12:31:46.453Z,20.50
2017-06-28T12:34:14.020Z,20.30
2017-06-28T12:36:41.558Z,20.10
2017-06-28T12:39:09.109Z,19.90
2017-06-28T12:41:36.645Z,19.70
2017-06-28T12:44:04.181Z,19.50
2017-06-28T12:46:31.735Z,19.30
2017-06-28T12:48:59.274Z,19.20
2017-06-28T12:51:27.154Z,19.20
2017-06-28T12:53:54.710Z,19.10
2017-06-28T12:56:22.278Z,19.20
2017-06-28T12:58:49.862Z,19.10
2017-06-28T13:01:17.475Z,19.20
2017-06-28T13:03:45.027Z,19.20
2017-06-28T13:06:12.565Z,19.10
2017-06-28T13:08:40.117Z,19.10
2017-06-28T13:11:07.653Z,19.00
2017-06-28T13:13:35.625Z,18.90
2017-06-28T13:16:03.158Z,18.90
2017-06-28T13:18:30.724Z,18.90
2017-06-28T13:20:58.268Z,18.90
2017-06-28T13:23:25.875Z,18.90
2017-06-28T13:25:53.438Z,18.90
2017-06-28T13:28:20.974Z,19.00
2017-06-28T13:30:48.535Z,19.10
2017-06-28T13:33:16.077Z,19.20
2017-06-28T13:35:44.021Z,19.40
2017-06-28T13:38:11.575Z,19.40
2017-06-28T13:40:39.100Z,19.40
2017-06-28T13:43:06.640Z,19.50
2017-06-28T13:45:34.166Z,19.50
2017-06-28T13:48:01.718Z,19.60
2017-06-28T13:50:29.251Z,19.60
2017-06-28T13:52:56.822Z,19.70
2017-06-28T13:55:24.368Z,19.90
2017-06-28T13:57:51.911Z,19.90
2017-06-28T14:00:19.480Z,20.00
2017-06-28T14:02:47.021Z,20.10
2017-06-28T14:05:14.568Z,20.30
2017-06-28T14:07:42.102Z,20.40
2017-06-28T14:10:10.068Z,20.70
2017-06-28T14:12:37.597Z,20.70
2017-06-28T14:15:05.147Z,20.80
2017-06-28T14:17:32.675Z,20.90
2017-06-28T14:20:00.226Z,21.10
2017-06-28T14:22:27.771Z,21.10
2017-06-28T14:24:55.692Z,21.40
2017-06-28T14:27:23.248Z,21.40
2017-06-28T14:29:50.780Z,21.50
2017-06-28T14:32:18.335Z,21.50
2017-06-28T14:34:45.910Z,21.60
2017-06-28T14:37:13.465Z,21.50
2017-06-28T14:39:41.002Z,21.40
2017-06-28T14:42:08.541Z,21.40
2017-06-28T14:44:36.541Z,21.10
2017-06-28T14:47:04.077Z,21.10
2017-06-28T14:49:32.015Z,21.00
2017-06-28T14:51:59.609Z,21.00
2017-06-28T14:54:27.180Z,20.90
2017-06-28T14:56:54.707Z,20.90
2017-06-28T14:59:22.648Z,20.80
2017-06-28T15:01:50.184Z,20.80
2017-06-28T15:04:17.722Z,20.60
2017-06-28T15:06:45.294Z,20.40
2017-06-28T15:09:12.832Z,20.00
2017-06-28T15:11:40.381Z,19.70
2017-06-28T15:14:07.937Z,19.40
2017-06-28T15:16:35.490Z,19.30
2017-06-28T15:19:03.030Z,19.10
2017-06-28T15:21:30.586Z,19.10
2017-06-28T15:23:58.128Z,19.00
2017-06-28T15:26:25.657Z,19.10
2017-06-28T15:28:53.203Z,19.20
2017-06-28T15:31:20.765Z,19.30
2017-06-28T15:33:48.325Z,19.50
2017-06-28T15:36:15.951Z,19.60
2017-06-28T15:38:43.521Z,19.60
2017-06-28T15:41:11.242Z,19.70
2017-06-28T15:43:38.832Z,19.60
2017-06-28T15:46:07.003Z,19.60
2017-06-28T15:48:34.532Z,19.60
2017-06-28T15:51:02.095Z,19.50
2017-06-28T15:53:41.555Z,19.40
2017-06-28T15:56:11.725Z,19.40
2017-06-28T15:58:40.587Z,19.30
2017-06-28T16:01:08.238Z,19.30
2017-06-28T16:03:35.786Z,19.20
2017-06-28T16:06:04.659Z,19.20
2017-06-28T16:08:32.278Z,19.20
2017-06-28T16:11:01.039Z,19.10
2017-06-28T16:13:29.040Z,19.10
2017-06-28T16:15:56.777Z,19.10
2017-06-28T16:18:24.708Z,19.10
2017-06-28T16:20:52.241Z,19.00
2017-06-28T16:23:20.980Z,19.00
2017-06-28T16:25:48.537Z,19.00
2017-06-28T16:28:17.719Z,18.90
2017-06-28T16:30:46.201Z,18.90
2017-06-28T16:33:13.763Z,18.90
2017-06-28T16:35:41.350Z,19.00
2017-06-28T16:38:08.994Z,19.00
2017-06-28T16:40:36.932Z,19.00
2017-06-28T16:43:04.784Z,18.90
2017-06-28T16:45:32.432Z,19.00
2017-06-28T16:48:00.138Z,18.90
2017-06-28T16:50:28.220Z,19.00
2017-06-28T16:52:55.899Z,19.00
2017-06-28T16:55:24.086Z,19.00
2017-06-28T16:57:51.795Z,19.00
2017-06-28T17:00:19.821Z,19.10
2017-06-28T17:02:47.457Z,19.10
2017-06-28T17:05:16.041Z,19.10
2017-06-28T17:07:43.603Z,19.10
2017-06-28T17:10:11.184Z,19.00
2017-06-28T17:12:38.741Z,19.00
2017-06-28T17:15:06.349Z,19.00
2017-06-28T17:17:33.915Z,19.00
2017-06-28T17:20:01.493Z,19.00
2017-06-28T17:22:29.043Z,19.00
2017-06-28T17:24:56.766Z,18.90
2017-06-28T17:27:24.300Z,18.90
2017-06-28T17:29:51.865Z,18.90
2017-06-28T17:32:19.451Z,19.00
2017-06-28T17:34:47.268Z,19.00
2017-06-28T17:37:14.802Z,19.00
2017-06-28T17:39:42.418Z,19.00
2017-06-28T17:42:09.978Z,19.10
2017-06-28T17:44:37.504Z,19.10
2017-06-28T17:47:05.084Z,19.10
2017-06-28T17:49:33.833Z,19.10
2017-06-28T17:52:01.413Z,19.10
2017-06-28T17:54:29.094Z,19.10
2017-06-28T17:56:57.204Z,19.10
2017-06-28T17:59:25.864Z,19.10
2017-06-28T18:01:54.210Z,19.00
2017-06-28T18:04:21.739Z,19.00
2017-06-28T18:06:49.360Z,19.00
2017-06-28T18:09:16.949Z,19.00
2017-06-28T18:11:45.175Z,19.00
2017-06-28T18:14:12.720Z,19.00
2017-06-28T18:16:40.377Z,19.00
2017-06-28T18:19:07.945Z,19.10
2017-06-28T18:21:35.586Z,19.10
2017-06-28T18:24:03.157Z,19.10
2017-06-28T18:26:30.755Z,19.20
2017-06-28T18:28:58.289Z,19.20
2017-06-28T18:31:25.853Z,19.30
2017-06-28T18:33:53.394Z,19.30
2017-06-28T18:36:20.953Z,19.40
2017-06-28T18:38:48.490Z,19.50
2017-06-28T18:41:16.168Z,19.50
2017-06-28T18:43:43.714Z,19.50
2017-06-28T18:46:11.525Z,19.60
2017-06-28T18:48:39.062Z,19.60
2017-06-28T18:51:06.969Z,19.60
2017-06-28T18:53:34.513Z,19.70
2017-06-28T18:56:02.093Z,19.70
2017-06-28T18:58:29.668Z,19.80
2017-06-28T19:00:57.391Z,19.70
2017-06-28T19:03:25.033Z,19.70
2017-06-28T19:05:52.746Z,19.70
2017-06-28T19:08:20.315Z,19.70
2017-06-28T19:10:48.054Z,19.60
2017-06-28T19:13:16.008Z,19.40
2017-06-28T19:15:45.543Z,19.40
2017-06-28T19:18:13.221Z,19.30
2017-06-28T19:20:40.846Z,19.20
2017-06-28T19:23:08.543Z,19.10
2017-06-28T19:25:36.106Z,19.10
2017-06-28T19:28:03.812Z,19.00
2017-06-28T19:30:31.383Z,18.90
2017-06-28T19:32:59.511Z,18.80
2017-06-28T19:35:28.087Z,18.90
2017-06-28T19:37:55.899Z,18.70
2017-06-28T19:40:23.893Z,18.70
2017-06-28T19:42:51.532Z,18.70
2017-06-28T19:45:19.488Z,18.50
2017-06-28T19:47:47.045Z,18.50
2017-06-28T19:50:14.678Z,18.40
2017-06-28T19:52:42.296Z,18.30
2017-06-28T19:55:09.960Z,18.20
2017-06-28T19:57:37.588Z,18.20
2017-06-28T20:00:05.736Z,18.00
2017-06-28T20:02:33.296Z,18.00
2017-06-28T20:05:01.026Z,17.90
2017-06-28T20:07:28.591Z,17.80
2017-06-28T20:09:56.180Z,17.80
2017-06-28T20:12:23.733Z,17.70
2017-06-28T20:14:51.406Z,17.70
2017-06-28T20:17:18.961Z,17.70
2017-06-28T20:19:46.598Z,17.60
2017-06-28T20:22:14.205Z,17.60
2017-06-28T20:24:42.413Z,17.50
2017-06-28T20:27:10.010Z,17.50
2017-06-28T20:29:37.749Z,17.40
2017-06-28T20:32:05.355Z,17.40
2017-06-28T20:34:33.053Z,17.40
2017-06-28T20:37:00.636Z,17.40
2017-06-28T20:39:28.370Z,17.40
2017-06-28T20:41:55.940Z,17.40
2017-06-28T20:44:24.236Z,17.40
2017-06-28T20:46:51.777Z,17.30
2017-06-28T20:49:19.759Z,17.30
2017-06-28T20:51:47.305Z,17.20
2017-06-28T20:54:15.121Z,17.30
2017-06-28T20:56:42.652Z,17.30
2017-06-28T20:59:10.220Z,17.20
2017-06-28T21:01:37.765Z,17.20
2017-06-28T21:04:05.362Z,17.20
2017-06-28T21:06:33.321Z,17.20
2017-06-28T21:09:00.858Z,17.20
2017-06-28T21:11:28.483Z,17.10
2017-06-28T21:13:56.046Z,17.10
2017-06-28T21:16:23.608Z,17.10
2017-06-28T21:18:51.178Z,17.10
2017-06-28T21:21:18.805Z,17.00
2017-06-28T21:23:46.404Z,17.10
2017-06-28T21:26:13.990Z,17.10
2017-06-28T21:28:41.592Z,17.10
2017-06-28T21:31:09.181Z,17.10
2017-06-28T21:33:36.825Z,17.10
2017-06-28T21:36:05.495Z,17.10
2017-06-28T21:38:33.073Z,17.00
2017-06-28T21:41:00.616Z,17.00
2017-06-28T21:43:28.271Z,17.00
2017-06-28T21:45:55.827Z,17.00
2017-06-28T21:48:23.361Z,17.00
2017-06-28T21:50:50.932Z,17.00
2017-06-28T21:53:18.485Z,17.00
2017-06-28T21:55:47.032Z,16.90
2017-06-28T21:58:14.577Z,17.00
2017-06-28T22:00:42.145Z,16.90
2017-06-28T22:03:09.690Z,17.00
2017-06-28T22:05:37.233Z,17.00
2017-06-28T22:08:04.799Z,17.00
2017-06-28T22:10:32.328Z,17.00
2017-06-28T22:12:59.886Z,17.00
2017-06-28T22:15:27.436Z,17.00
2017-06-28T22:17:54.995Z,16.90
2017-06-28T22:20:34.322Z,16.90
2017-06-28T22:23:01.893Z,16.80
2017-06-28T22:25:29.437Z,16.80
2017-06-28T22:27:57.407Z,16.70
2017-06-28T22:30:25.365Z,16.60
2017-06-28T22:32:52.909Z,16.60
2017-06-28T22:35:20.474Z,16.60
2017-06-28T22:37:48.018Z,16.50
2017-06-28T22:40:15.574Z,16.50
2017-06-28T22:42:43.132Z,16.50
2017-06-28T22:45:10.698Z,16.50
2017-06-28T22:47:38.250Z,16.50
2017-06-28T22:50:05.776Z,16.40
2017-06-28T22:52:33.330Z,16.40
2017-06-28T22:55:00.872Z,16.40
2017-06-28T22:57:28.435Z,16.40
2017-06-28T22:59:55.980Z,16.40
2017-06-28T23:02:23.957Z,16.40
2017-06-28T23:04:51.495Z,16.50
2017-06-28T23:07:19.054Z,16.40
2017-06-28T23:09:47.003Z,16.40
2017-06-28T23:12:14.555Z,16.40
2017-06-28T23:14:42.113Z,16.30
2017-06-28T23:17:09.640Z,16.30
2017-06-28T23:19:37.218Z,16.30
2017-06-28T23:22:04.759Z,16.30
2017-06-28T23:24:32.308Z,16.30
2017-06-28T23:26:59.848Z,16.30
2017-06-28T23:29:27.408Z,16.20
2017-06-28T23:31:56.049Z,16.20
2017-06-28T23:34:24.306Z,16.30
2017-06-28T23:36:51.867Z,16.20
2017-06-28T23:39:19.413Z,16.20
2017-06-28T23:41:46.973Z,16.10
2017-06-28T23:44:14.525Z,16.10
2017-06-28T23:46:42.090Z,16.10
2017-06-28T23:49:09.645Z,16.10
2017-06-28T23:51:37.207Z,16.10
2017-06-28T23:54:04.766Z,16.00
2017-06-28T23:56:32.309Z,16.00
2017-06-28T23:58:59.868Z,15.90
